createdAt,value
2018-08-13T00:01:08.333Z,1.80
2018-08-13T00:03:36.537Z,2.10
2018-08-13T00:06:05.248Z,2.30
2018-08-13T00:08:33.407Z,2.20
2018-08-13T00:11:01.689Z,2.23
2018-08-13T00:13:29.848Z,2.20
2018-08-13T00:15:58.033Z,2.23
2018-08-13T00:18:26.546Z,1.97
2018-08-13T00:20:54.729Z,2.10
2018-08-13T00:23:22.894Z,2.33
2018-08-13T00:25:51.128Z,2.13
2018-08-13T00:28:19.323Z,1.90
2018-08-13T00:30:47.503Z,2.30
2018-08-13T00:33:15.705Z,2.10
2018-08-13T00:35:43.862Z,1.90
2018-08-13T00:38:12.034Z,1.90
2018-08-13T00:40:40.178Z,2.07
2018-08-13T00:43:08.411Z,2.13
2018-08-13T00:45:36.598Z,2.20
2018-08-13T00:48:05.078Z,2.07
2018-08-13T00:50:33.217Z,2.00
2018-08-13T00:53:01.451Z,2.37
2018-08-13T00:55:30.018Z,2.13
2018-08-13T00:57:58.243Z,2.23
2018-08-13T01:00:26.411Z,1.97
2018-08-13T01:02:55.460Z,2.30
2018-08-13T01:05:23.657Z,2.07
2018-08-13T01:07:52.492Z,2.07
2018-08-13T01:10:21.826Z,2.23
2018-08-13T01:12:50.048Z,2.27
2018-08-13T01:15:19.395Z,1.83
2018-08-13T01:17:48.719Z,1.83
2018-08-13T01:20:17.741Z,2.03
2018-08-13T01:22:46.454Z,2.10
2018-08-13T01:25:16.906Z,2.27
2018-08-13T01:27:46.103Z,2.40
2018-08-13T01:30:15.581Z,2.30
2018-08-13T01:32:43.817Z,2.47
2018-08-13T01:35:11.982Z,2.50
2018-08-13T01:37:40.185Z,2.47
2018-08-13T01:40:09.551Z,2.10
2018-08-13T01:42:37.861Z,2.50
2018-08-13T01:45:08.282Z,2.50
2018-08-13T01:47:36.450Z,2.60
2018-08-13T01:50:06.305Z,2.30
2018-08-13T02:58:10.202Z,2.47
2018-08-13T03:00:38.382Z,2.47
2018-08-13T03:03:06.953Z,2.20
2018-08-13T03:05:35.162Z,2.37
2018-08-13T03:08:03.338Z,2.40
2018-08-13T03:10:31.750Z,2.73
2018-08-13T03:12:59.982Z,2.50
2018-08-13T03:15:28.209Z,2.30
2018-08-13T03:17:56.411Z,2.40
2018-08-13T03:20:24.638Z,2.50
2018-08-13T03:22:52.850Z,2.43
2018-08-13T03:25:21.068Z,2.30
2018-08-13T03:27:49.405Z,2.50
2018-08-13T03:30:18.006Z,2.60
2018-08-13T03:32:46.449Z,3.00
2018-08-13T03:35:14.677Z,2.70
2018-08-13T03:37:43.357Z,2.20
2018-08-13T03:40:13.235Z,3.17
2018-08-13T03:42:41.566Z,2.70
2018-08-13T03:45:11.178Z,2.70
2018-08-13T03:47:39.543Z,2.50
2018-08-13T03:50:09.081Z,2.60
2018-08-13T03:52:37.245Z,2.83
2018-08-13T03:55:06.704Z,2.83
2018-08-13T03:57:34.926Z,2.77
2018-08-13T04:00:03.247Z,2.73
2018-08-13T04:02:31.402Z,2.47
2018-08-13T04:04:59.598Z,4.10
2018-08-13T04:07:27.733Z,2.70
2018-08-13T04:09:55.940Z,2.97
2018-08-13T04:12:24.309Z,2.50
2018-08-13T04:14:52.505Z,3.20
2018-08-13T04:17:20.709Z,2.90
2018-08-13T04:19:48.901Z,3.07
2018-08-13T04:22:17.115Z,2.40
2018-08-13T04:24:45.333Z,3.00
2018-08-13T04:27:13.554Z,2.33
2018-08-13T04:29:41.797Z,3.00
2018-08-13T04:32:09.986Z,2.43
2018-08-13T04:34:38.149Z,2.50
2018-08-13T04:37:06.382Z,2.70
2018-08-13T04:39:35.082Z,2.23
2018-08-13T04:42:03.329Z,2.60
2018-08-13T04:44:31.509Z,2.80
2018-08-13T04:47:00.395Z,2.67
2018-08-13T04:49:28.655Z,2.40
2018-08-13T04:51:56.844Z,2.30
2018-08-13T04:54:25.083Z,2.20
2018-08-13T04:56:53.291Z,2.20
2018-08-13T04:59:21.637Z,2.67
2018-08-13T05:01:49.861Z,2.33
2018-08-13T05:04:18.125Z,2.53
2018-08-13T05:06:46.302Z,3.10
2018-08-13T05:09:14.833Z,2.63
2018-08-13T05:11:43.047Z,2.97
2018-08-13T05:14:11.181Z,2.90
2018-08-13T05:16:39.741Z,2.30
2018-08-13T05:19:12.806Z,2.97
2018-08-13T05:21:40.928Z,3.03
2018-08-13T05:24:09.072Z,2.67
2018-08-13T05:26:37.245Z,2.90
2018-08-13T05:29:05.657Z,2.60
2018-08-13T05:31:34.199Z,2.97
2018-08-13T05:34:02.423Z,2.77
2018-08-13T05:36:30.901Z,2.67
2018-08-13T05:38:59.086Z,2.30
2018-08-13T05:41:27.249Z,2.90
2018-08-13T05:43:55.457Z,2.52
2018-08-13T05:46:24.041Z,2.70
2018-08-13T05:48:52.281Z,2.60
2018-08-13T05:51:20.458Z,2.65
2018-08-13T05:53:48.686Z,2.40
2018-08-13T05:56:16.869Z,2.90
2018-08-13T05:58:45.065Z,2.45
2018-08-13T06:01:14.686Z,2.20
2018-08-13T06:03:42.849Z,4.35
2018-08-13T06:06:11.030Z,3.33
2018-08-13T06:08:39.230Z,4.30
2018-08-13T06:11:07.680Z,4.40
2018-08-13T06:13:39.839Z,3.90
2018-08-13T06:16:08.018Z,4.53
2018-08-13T06:18:36.186Z,5.00
2018-08-13T06:21:04.419Z,5.20
2018-08-13T06:23:32.578Z,4.70
2018-08-13T06:26:00.810Z,4.97
2018-08-13T06:28:29.045Z,5.50
2018-08-13T06:30:57.267Z,5.07
2018-08-13T06:33:25.494Z,4.60
2018-08-13T06:35:53.702Z,4.80
2018-08-13T06:38:21.905Z,5.20
2018-08-13T06:40:50.225Z,6.10
2018-08-13T06:43:18.459Z,5.47
2018-08-13T06:45:46.684Z,5.40
2018-08-13T06:48:14.877Z,5.20
2018-08-13T06:50:43.081Z,6.10
2018-08-13T06:53:11.253Z,5.50
2018-08-13T06:55:39.425Z,5.37
2018-08-13T06:58:07.577Z,5.93
2018-08-13T07:00:35.779Z,5.60
2018-08-13T07:03:03.983Z,5.60
2018-08-13T07:05:32.184Z,5.87
2018-08-13T07:08:00.388Z,6.33
2018-08-13T07:10:32.162Z,5.77
2018-08-13T07:13:01.053Z,5.37
2018-08-13T07:15:29.225Z,5.53
2018-08-13T07:17:57.438Z,5.37
2018-08-13T07:20:25.688Z,6.33
2018-08-13T07:22:53.951Z,5.83
2018-08-13T07:25:22.221Z,5.77
2018-08-13T07:27:50.609Z,6.03
2018-08-13T07:30:18.762Z,5.93
2018-08-13T07:32:46.921Z,6.03
2018-08-13T07:35:15.506Z,6.13
2018-08-13T07:37:44.018Z,6.23
2018-08-13T07:40:14.560Z,7.10
2018-08-13T07:42:45.998Z,6.23
2018-08-13T07:45:14.519Z,5.93
2018-08-13T07:47:42.895Z,6.83
2018-08-13T07:50:12.594Z,7.23
2018-08-13T07:52:40.885Z,7.30
2018-08-13T07:55:09.913Z,7.00
2018-08-13T07:57:38.674Z,6.67
2018-08-13T08:00:08.382Z,6.07
2018-08-13T08:02:36.529Z,7.00
2018-08-13T08:05:05.678Z,6.80
2018-08-13T08:07:33.929Z,7.73
2018-08-13T08:10:02.259Z,7.97
2018-08-13T08:12:30.444Z,7.37
2018-08-13T08:14:58.677Z,7.87
2018-08-13T08:17:26.844Z,7.80
2018-08-13T08:19:55.053Z,7.30
2018-08-13T08:22:23.230Z,6.93
2018-08-13T08:24:51.411Z,8.53
2018-08-13T08:27:19.789Z,8.13
2018-08-13T08:29:47.945Z,8.83
2018-08-13T08:32:16.101Z,7.57
2018-08-13T08:34:44.319Z,8.30
2018-08-13T08:37:12.538Z,7.77
2018-08-13T08:39:40.798Z,7.33
2018-08-13T08:42:08.950Z,7.93
2018-08-13T08:44:37.182Z,7.93
2018-08-13T08:47:05.446Z,8.17
2018-08-13T08:49:33.613Z,8.23
2018-08-13T08:52:02.161Z,8.70
2018-08-13T08:54:30.328Z,8.17
2018-08-13T08:56:58.534Z,7.97
2018-08-13T08:59:26.789Z,7.73
2018-08-13T09:01:55.075Z,7.20
2018-08-13T09:04:23.364Z,7.87
2018-08-13T09:06:51.570Z,8.40
2018-08-13T09:09:19.793Z,7.07
2018-08-13T09:11:47.965Z,7.17
2018-08-13T09:14:16.167Z,6.03
2018-08-13T09:16:47.690Z,7.00
2018-08-13T09:19:27.202Z,6.70
2018-08-13T09:22:11.769Z,5.83
2018-08-13T09:24:51.451Z,6.53
2018-08-13T09:27:31.245Z,6.87
2018-08-13T09:30:11.078Z,7.40
2018-08-13T09:32:50.713Z,6.73
2018-08-13T09:35:22.149Z,6.63
2018-08-13T09:37:50.327Z,6.25
2018-08-13T09:40:18.526Z,6.28
2018-08-13T09:42:46.748Z,7.12
2018-08-13T09:45:14.937Z,7.22
2018-08-13T09:47:43.454Z,6.35
2018-08-13T09:50:13.809Z,6.75
2018-08-13T09:52:42.582Z,7.35
2018-08-13T09:55:11.037Z,7.17
2018-08-13T09:57:40.421Z,7.65
2018-08-13T10:00:14.445Z,7.75
2018-08-13T10:02:43.199Z,8.03
2018-08-13T10:05:11.590Z,8.25
2018-08-13T10:07:39.898Z,8.65
2018-08-13T10:10:09.146Z,9.33
2018-08-13T10:12:37.368Z,9.00
2018-08-13T10:15:06.337Z,8.43
2018-08-13T10:17:34.831Z,8.10
2018-08-13T10:20:03.210Z,9.23
2018-08-13T10:22:32.517Z,8.70
2018-08-13T10:25:01.658Z,8.43
2018-08-13T10:27:29.892Z,8.88
2018-08-13T10:29:58.049Z,8.78
2018-08-13T10:32:26.520Z,8.65
2018-08-13T10:34:54.646Z,8.73
2018-08-13T10:37:22.902Z,9.30
2018-08-13T10:39:51.386Z,8.53
2018-08-13T10:42:19.614Z,7.77
2018-08-13T10:44:48.270Z,8.00
2018-08-13T10:47:16.426Z,8.30
2018-08-13T10:49:44.764Z,8.43
2018-08-13T10:52:12.942Z,8.33
2018-08-13T10:54:41.166Z,9.23
2018-08-13T10:57:09.354Z,8.75
2018-08-13T10:59:37.942Z,8.03
2018-08-13T11:02:06.208Z,8.10
2018-08-13T11:04:34.772Z,7.87
2018-08-13T11:07:02.929Z,7.95
2018-08-13T11:09:31.101Z,8.35
2018-08-13T11:11:59.356Z,8.00
2018-08-13T11:14:27.634Z,8.90
2018-08-13T11:16:56.036Z,9.85
2018-08-13T11:19:24.289Z,9.10
2018-08-13T11:21:52.498Z,8.43
2018-08-13T11:24:20.713Z,8.47
2018-08-13T11:26:49.118Z,9.68
2018-08-13T11:29:18.449Z,11.17
2018-08-13T11:31:46.642Z,10.87
2018-08-13T11:34:14.883Z,10.90
2018-08-13T11:36:43.127Z,11.33
2018-08-13T11:39:12.472Z,10.57
2018-08-13T11:41:40.646Z,11.90
2018-08-13T11:44:19.050Z,11.27
2018-08-13T11:46:47.230Z,10.10
2018-08-13T11:49:15.408Z,10.55
2018-08-13T11:51:43.857Z,9.55
2018-08-13T11:54:12.035Z,7.95
2018-08-13T11:56:40.230Z,5.97
2018-08-13T11:59:09.214Z,4.95
2018-08-13T12:01:37.387Z,5.10
2018-08-13T12:04:05.733Z,5.10
2018-08-13T12:06:34.037Z,4.87
2018-08-13T12:09:02.202Z,4.35
2018-08-13T12:11:30.402Z,4.70
2018-08-13T12:13:58.586Z,4.53
2018-08-13T12:16:26.791Z,4.10
2018-08-13T12:18:55.002Z,5.15
2018-08-13T12:21:23.175Z,4.72
2018-08-13T12:23:51.330Z,4.55
2018-08-13T12:26:19.476Z,5.42
2018-08-13T12:28:48.036Z,4.45
2018-08-13T12:31:16.236Z,4.92
2018-08-13T12:33:46.892Z,5.90
2018-08-13T12:36:15.051Z,4.75
2018-08-13T12:38:43.263Z,5.75
2018-08-13T12:41:11.568Z,5.40
2018-08-13T12:43:39.710Z,4.90
2018-08-13T12:46:07.972Z,4.35
2018-08-13T12:48:36.223Z,3.92
2018-08-13T12:51:04.494Z,3.60
2018-08-13T12:53:34.694Z,3.65
2018-08-13T12:56:02.924Z,2.80
2018-08-13T12:58:31.128Z,2.72
2018-08-13T13:01:00.242Z,2.02
2018-08-13T13:03:28.945Z,2.10
2018-08-13T13:05:57.767Z,2.20
2018-08-13T13:08:26.345Z,1.92
2018-08-13T13:10:54.545Z,2.00
2018-08-13T13:13:22.763Z,1.90
2018-08-13T13:15:51.014Z,2.10
2018-08-13T13:18:19.206Z,1.70
2018-08-13T13:20:48.269Z,1.62
2018-08-13T13:23:16.442Z,1.45
2018-08-13T13:25:46.567Z,1.45
2018-08-13T13:28:14.742Z,1.60
2018-08-13T13:30:42.906Z,1.35
2018-08-13T13:33:11.201Z,1.30
2018-08-13T13:35:39.420Z,1.30
2018-08-13T13:38:07.674Z,0.93
2018-08-13T13:40:35.864Z,1.20
2018-08-13T13:43:04.706Z,1.00
2018-08-13T13:45:34.549Z,1.40
2018-08-13T13:48:02.728Z,1.20
2018-08-13T13:50:30.912Z,1.40
2018-08-13T13:52:59.110Z,1.12
2018-08-13T13:55:27.306Z,1.32
2018-08-13T13:57:55.522Z,1.30
2018-08-13T14:00:23.753Z,1.30
2018-08-13T14:02:52.246Z,1.30
2018-08-13T14:05:20.712Z,1.30
2018-08-13T14:07:48.882Z,1.40
2018-08-13T14:10:19.445Z,1.50
2018-08-13T14:12:47.641Z,1.50
2018-08-13T14:15:18.223Z,1.70
2018-08-13T14:17:46.686Z,1.55
2018-08-13T14:20:14.921Z,1.45
2018-08-13T14:22:43.095Z,1.87
2018-08-13T14:25:12.637Z,1.82
2018-08-13T14:27:41.016Z,1.70
2018-08-13T14:30:11.838Z,1.98
2018-08-13T14:32:39.975Z,1.70
2018-08-13T14:35:08.210Z,1.60
2018-08-13T14:37:36.405Z,1.90
2018-08-13T14:40:05.298Z,1.52
2018-08-13T14:42:33.438Z,1.90
2018-08-13T14:45:01.622Z,1.95
2018-08-13T14:47:29.834Z,1.60
2018-08-13T14:49:58.065Z,1.57
2018-08-13T14:52:26.325Z,1.52
2018-08-13T14:54:54.557Z,2.05
2018-08-13T14:57:22.749Z,1.75
2018-08-13T14:59:51.149Z,1.40
2018-08-13T15:02:20.025Z,1.50
2018-08-13T15:04:48.236Z,1.30
2018-08-13T15:07:17.148Z,1.30
2018-08-13T15:09:45.563Z,1.35
2018-08-13T15:12:13.772Z,1.15
2018-08-13T15:14:41.905Z,1.30
2018-08-13T15:17:10.104Z,1.00
2018-08-13T15:19:38.290Z,1.35
2018-08-13T15:22:06.513Z,1.20
2018-08-13T15:24:34.730Z,1.45
2018-08-13T15:27:03.460Z,0.90
2018-08-13T15:29:31.807Z,1.10
2018-08-13T15:31:59.997Z,0.70
2018-08-13T15:34:28.129Z,0.90
2018-08-13T15:36:57.014Z,1.00
2018-08-13T15:39:25.229Z,0.90
2018-08-13T15:41:53.491Z,1.00
2018-08-13T15:44:21.735Z,1.10
2018-08-13T15:46:49.937Z,1.10
2018-08-13T15:49:18.618Z,1.00
2018-08-13T15:51:46.837Z,1.05
2018-08-13T15:54:15.039Z,1.00
2018-08-13T15:56:43.273Z,1.02
2018-08-13T15:59:11.502Z,1.02
2018-08-13T16:01:39.862Z,1.10
2018-08-13T16:04:08.065Z,0.90
2018-08-13T16:06:36.294Z,1.05
2018-08-13T16:09:05.889Z,1.30
2018-08-13T16:11:34.173Z,1.65
2018-08-13T16:14:02.324Z,1.10
2018-08-13T16:16:30.582Z,1.02
2018-08-13T16:18:58.714Z,1.10
2018-08-13T16:21:26.926Z,1.12
2018-08-13T16:23:55.094Z,1.22
2018-08-13T16:26:23.334Z,1.27
2018-08-13T16:28:51.533Z,1.10
2018-08-13T16:31:19.701Z,1.57
2018-08-13T16:33:48.446Z,1.02
2018-08-13T16:36:16.645Z,1.27
2018-08-13T16:38:44.788Z,1.40
2018-08-13T16:41:13.394Z,1.10
2018-08-13T16:43:41.598Z,1.55
2018-08-13T16:46:09.997Z,1.70
2018-08-13T16:48:38.193Z,1.40
2018-08-13T16:51:06.562Z,1.52
2018-08-13T16:53:38.377Z,1.55
2018-08-13T16:56:06.615Z,1.77
2018-08-13T16:58:35.190Z,1.40
2018-08-13T17:01:03.341Z,1.80
2018-08-13T17:03:31.729Z,1.30
2018-08-13T17:06:00.558Z,1.50
2018-08-13T17:08:28.775Z,1.72
2018-08-13T17:10:57.103Z,1.37
2018-08-13T17:13:27.047Z,1.37
2018-08-13T17:15:55.196Z,1.55
2018-08-13T17:18:23.397Z,1.80
2018-08-13T17:20:51.574Z,1.55
2018-08-13T17:23:19.761Z,1.98
2018-08-13T17:25:47.954Z,1.45
2018-08-13T17:28:17.129Z,1.50
2018-08-13T17:30:45.305Z,1.30
2018-08-13T17:33:13.504Z,1.60
2018-08-13T17:35:41.657Z,1.42
2018-08-13T17:38:10.821Z,1.07
2018-08-13T17:40:39.152Z,1.07
2018-08-13T17:43:08.836Z,0.70
2018-08-13T17:45:36.833Z,0.55
2018-08-13T17:48:06.097Z,0.50
2018-08-13T17:50:34.339Z,0.60
2018-08-13T17:53:02.599Z,0.98
2018-08-13T17:55:31.317Z,0.75
2018-08-13T17:57:59.528Z,0.78
2018-08-13T18:00:27.934Z,0.80
2018-08-13T18:02:56.201Z,0.60
2018-08-13T18:05:25.589Z,0.62
2018-08-13T18:07:54.246Z,0.50
2018-08-13T18:10:31.373Z,0.40
2018-08-13T18:13:00.753Z,0.80
2018-08-13T18:15:28.991Z,0.53
2018-08-13T18:17:57.170Z,0.50
2018-08-13T18:20:25.373Z,0.70
2018-08-13T18:22:53.603Z,0.50
2018-08-13T18:25:21.794Z,0.47
2018-08-13T18:27:50.914Z,0.50
2018-08-13T18:30:21.181Z,0.40
2018-08-13T18:32:49.490Z,0.40
2018-08-13T18:35:17.686Z,0.50
2018-08-13T18:37:45.926Z,0.50
2018-08-13T18:40:17.701Z,0.40
2018-08-13T18:42:46.081Z,0.60
2018-08-13T18:45:14.399Z,0.50
2018-08-13T18:47:42.645Z,0.53
2018-08-13T18:50:13.713Z,0.55
2018-08-13T18:52:42.317Z,0.50
2018-08-13T18:55:11.713Z,0.50
2018-08-13T18:57:39.919Z,0.53
2018-08-13T19:00:10.014Z,0.55
2018-08-13T19:02:38.154Z,0.40
2018-08-13T19:05:06.882Z,0.60
2018-08-13T19:07:35.075Z,0.67
2018-08-13T19:10:03.274Z,0.60
2018-08-13T19:12:31.493Z,0.60
2018-08-13T19:15:00.002Z,0.67
2018-08-13T19:17:28.213Z,0.60
2018-08-13T19:19:56.417Z,0.80
2018-08-13T19:22:26.064Z,0.60
2018-08-13T19:24:54.643Z,0.70
2018-08-13T19:27:22.811Z,0.60
2018-08-13T19:29:51.002Z,0.70
2018-08-13T19:32:21.135Z,0.75
2018-08-13T19:34:49.273Z,0.90
2018-08-13T19:37:17.499Z,0.60
2018-08-13T19:39:46.329Z,0.90
2018-08-13T19:42:14.501Z,0.60
2018-08-13T19:44:42.671Z,0.65
2018-08-13T19:47:11.283Z,0.70
2018-08-13T19:49:39.493Z,0.70
2018-08-13T19:52:07.977Z,0.90
2018-08-13T19:54:36.631Z,0.70
2018-08-13T19:57:04.886Z,0.60
2018-08-13T19:59:33.065Z,1.15
2018-08-13T20:02:01.430Z,0.88
2018-08-13T20:04:30.042Z,0.80
2018-08-13T20:07:00.144Z,0.80
2018-08-13T20:09:28.289Z,0.83
2018-08-13T20:11:56.485Z,0.60
2018-08-13T20:14:25.718Z,1.00
2018-08-13T20:16:55.289Z,0.60
2018-08-13T20:19:23.462Z,0.90
2018-08-13T20:21:51.689Z,0.80
2018-08-13T20:24:19.880Z,0.70
2018-08-13T20:26:48.078Z,0.80
2018-08-13T20:29:16.266Z,0.75
2018-08-13T20:31:44.484Z,0.90
2018-08-13T20:34:12.705Z,0.90
2018-08-13T20:36:40.937Z,1.10
2018-08-13T20:39:12.876Z,1.17
2018-08-13T20:41:41.527Z,0.90
2018-08-13T20:44:10.671Z,1.07
2018-08-13T20:46:39.130Z,0.90
2018-08-13T20:49:08.607Z,1.10
2018-08-13T20:51:37.605Z,1.10
2018-08-13T20:54:06.802Z,1.30
2018-08-13T20:56:35.522Z,0.90
2018-08-13T20:59:03.966Z,1.10
2018-08-13T21:01:32.503Z,1.50
2018-08-13T21:04:00.751Z,0.90
2018-08-13T21:06:28.989Z,1.03
2018-08-13T21:08:57.283Z,1.20
2018-08-13T21:11:25.421Z,1.20
2018-08-13T21:13:53.641Z,1.10
2018-08-13T21:16:21.858Z,1.00
2018-08-13T21:18:50.071Z,1.00
2018-08-13T21:21:19.461Z,1.10
2018-08-13T21:23:47.889Z,1.20
2018-08-13T21:26:16.074Z,1.37
2018-08-13T21:28:44.263Z,1.20
2018-08-13T21:31:12.520Z,1.70
2018-08-13T21:33:40.725Z,1.33
2018-08-13T21:36:09.254Z,1.30
2018-08-13T21:38:37.497Z,1.40
2018-08-13T21:41:05.685Z,1.20
2018-08-13T21:43:33.873Z,1.43
2018-08-13T21:46:02.056Z,1.50
2018-08-13T21:48:30.534Z,1.50
2018-08-13T21:50:59.554Z,1.60
2018-08-13T21:53:27.941Z,1.83
2018-08-13T21:55:56.153Z,1.63
2018-08-13T21:58:24.329Z,1.73
2018-08-13T22:00:58.084Z,1.63
2018-08-13T22:03:26.290Z,1.70
2018-08-13T22:05:55.289Z,2.10
2018-08-13T22:08:23.568Z,1.67
2018-08-13T22:10:52.362Z,1.90
2018-08-13T22:13:21.082Z,1.50
2018-08-13T22:15:49.268Z,1.50
2018-08-13T22:18:17.438Z,1.70
2018-08-13T22:20:45.702Z,1.50
2018-08-13T22:23:13.892Z,1.60
2018-08-13T22:25:44.590Z,1.50
2018-08-13T22:28:14.350Z,1.70
2018-08-13T22:30:42.635Z,1.57
2018-08-13T22:33:11.737Z,1.37
2018-08-13T22:35:40.031Z,1.20
2018-08-13T22:38:08.699Z,1.60
2018-08-13T22:40:37.091Z,1.60
2018-08-13T22:43:06.285Z,1.70
2018-08-13T22:45:34.469Z,1.80
2018-08-13T22:48:02.664Z,1.90
2018-08-13T22:50:30.845Z,1.40
2018-08-13T22:52:59.824Z,1.73
2018-08-13T22:55:28.150Z,1.60
2018-08-13T22:57:56.348Z,1.60
2018-08-13T23:00:24.553Z,1.47
2018-08-13T23:02:52.745Z,1.87
2018-08-13T23:05:25.114Z,1.73
2018-08-13T23:07:53.989Z,1.77
2018-08-13T23:10:23.353Z,1.70
2018-08-13T23:12:54.962Z,1.67
2018-08-13T23:15:23.282Z,1.77
2018-08-13T23:17:52.930Z,1.63
2018-08-13T23:20:22.548Z,1.67
2018-08-13T23:22:55.363Z,1.53
2018-08-13T23:25:23.646Z,1.73
2018-08-13T23:27:53.030Z,1.63
2018-08-13T23:30:21.607Z,1.63
2018-08-13T23:32:51.038Z,1.63
2018-08-13T23:35:20.063Z,1.50
2018-08-13T23:37:48.623Z,2.30
2018-08-13T23:40:16.855Z,2.30
2018-08-13T23:42:45.048Z,2.40
2018-08-13T23:45:14.550Z,2.10
2018-08-13T23:47:43.922Z,2.13
2018-08-13T23:50:17.694Z,2.00
2018-08-13T23:52:46.042Z,2.23
2018-08-13T23:55:21.985Z,1.90
2018-08-13T23:57:50.450Z,2.00
